Time;durP1;ratioP1;P1;durP2;ratioP2;P2;SDS_P1;SDS_P2;PMS_P1;PMS_P2;Temp;Humidity;BMP_temperature;BMP_pressure;BME280_temperature;BME280_humidity;BME280_pressure;Samples;Min_cycle;Max_cycle;Signal;HPM_P1;HPM_P2
2022/10/01 00:02:04;;;;;;;;;1.33;0.67;;;;;14.22;72.11;100703.94;4622160;28;2726744;-71
2022/10/01 00:04:29;;;;;;;;;1.00;0.00;;;;;14.28;72.27;100725.09;4623076;28;2725281;-71
2022/10/01 00:07:01;;;;;;;;;0.00;0.00;;;;;14.29;72.83;100737.34;4611456;28;2722125;-71
2022/10/01 00:09:27;;;;;;;;;1.50;0.00;;;;;14.29;73.10;100745.25;4622649;28;2729444;-70
2022/10/01 00:11:53;;;;;;;;;1.00;1.00;;;;;14.28;72.60;100729.44;4611861;28;2725271;-71
2022/10/01 00:14:19;;;;;;;;;0.50;0.50;;;;;14.38;72.52;100736.63;4630451;28;2725732;-71
2022/10/01 00:16:45;;;;;;;;;1.00;1.00;;;;;14.47;72.22;100744.66;4621861;28;2731885;-71
2022/10/01 00:19:13;;;;;;;;;0.00;0.00;;;;;14.31;71.71;100713.72;4605537;28;2727754;-71
2022/10/01 00:21:40;;;;;;;;;0.50;0.00;;;;;14.55;71.64;100750.06;4622151;28;2733956;-71
2022/10/01 00:24:06;;;;;;;;;0.00;0.00;;;;;14.52;71.48;100743.03;4600816;28;2725274;-71
2022/10/01 00:26:36;;;;;;;;;1.00;0.00;;;;;14.53;71.56;100738.63;4608473;28;2725274;-71
2022/10/01 00:29:10;;;;;;;;;0.00;0.00;;;;;14.62;71.17;100756.34;4622611;28;2719064;-71
2022/10/01 00:31:35;;;;;;;;;1.00;0.00;;;;;14.53;71.20;100747.41;4598919;28;2727742;-71
2022/10/01 00:34:02;;;;;;;;;0.00;0.00;;;;;14.58;71.52;100754.50;4610582;28;2725259;-71
2022/10/01 00:36:31;;;;;;;;;1.00;0.00;;;;;14.56;71.26;100753.56;4620525;28;2725238;-71
2022/10/01 00:38:59;;;;;;;;;0.00;0.00;;;;;14.50;71.30;100742.13;4619601;28;2726280;-71
2022/10/01 00:41:26;;;;;;;;;1.00;0.00;;;;;14.45;71.52;100728.00;4619918;28;2727384;-71
2022/10/01 00:44:02;;;;;;;;;0.00;0.00;;;;;14.49;71.33;100734.19;4599487;28;2724198;-71
2022/10/01 00:46:44;;;;;;;;;0.00;0.00;;;;;14.43;71.46;100721.81;4622683;28;2718026;-71
2022/10/01 00:49:18;;;;;;;;;1.00;1.00;;;;;14.29;71.87;100699.69;4600380;28;2721144;-71
2022/10/01 00:51:49;;;;;;;;;0.00;0.00;;;;;14.39;71.93;100729.66;4600757;28;2725294;-71
2022/10/01 00:54:29;;;;;;;;;0.00;0.00;;;;;14.28;71.43;100711.03;4598900;28;2725281;-71
2022/10/01 00:56:58;;;;;;;;;1.00;0.00;;;;;14.33;71.79;100722.53;4599332;28;2725294;-71
2022/10/01 00:59:24;;;;;;;;;0.50;0.00;;;;;14.15;71.67;100693.31;4600371;28;2728742;-71
2022/10/01 01:01:51;;;;;;;;;0.00;0.00;;;;;14.20;71.89;100712.66;4600517;28;2725282;-71
2022/10/01 01:04:16;;;;;;;;;0.00;0.00;;;;;14.31;71.26;100729.50;4600594;28;2727735;-71
2022/10/01 01:07:02;;;;;;;;;0.00;0.00;;;;;14.32;71.16;100723.38;4608087;28;2721128;-71
2022/10/01 01:09:37;;;;;;;;;0.00;0.00;;;;;14.25;70.78;100708.38;4621861;28;2722503;-71
2022/10/01 01:12:05;;;;;;;;;1.00;0.00;;;;;14.38;70.71;100728.72;4600336;28;2725290;-71
2022/10/01 01:14:48;;;;;;;;;0.00;0.00;;;;;14.40;70.71;100734.91;4602064;28;2725267;-71
2022/10/01 01:17:42;;;;;;;;;0.00;0.00;;;;;14.43;70.41;100745.47;4600666;28;2725318;-71
2022/10/01 01:20:27;;;;;;;;;0.00;0.00;;;;;14.44;70.27;100747.25;4599740;28;2722180;-71
2022/10/01 01:23:13;;;;;;;;;0.00;0.00;;;;;14.43;70.37;100749.88;4600295;28;2728434;-71
2022/10/01 01:25:48;;;;;;;;;0.00;0.00;;;;;14.35;70.26;100746.22;4549080;28;2725360;-71
2022/10/01 01:28:13;;;;;;;;;0.00;0.00;;;;;14.37;70.73;100761.16;4600902;28;2725302;-71
2022/10/01 01:30:40;;;;;;;;;0.00;0.00;;;;;14.27;70.84;100752.22;4613804;28;2729425;-71
2022/10/01 01:33:17;;;;;;;;;0.00;0.00;;;;;14.25;71.11;100745.16;4620467;28;2723203;-71
2022/10/01 01:35:53;;;;;;;;;0.00;0.00;;;;;14.21;71.04;100743.34;4621737;28;2722157;-71
2022/10/01 01:38:23;;;;;;;;;0.00;0.00;;;;;14.24;71.32;100761.78;4598790;28;2725302;-71
2022/10/01 01:40:54;;;;;;;;;0.00;0.00;;;;;14.19;71.48;100773.97;4599925;28;2722225;-71
2022/10/01 01:43:25;;;;;;;;;1.50;0.00;;;;;14.06;72.15;100759.69;4599748;28;2727381;-71
2022/10/01 01:45:57;;;;;;;;;1.00;0.00;;;;;13.99;71.81;100750.81;4599635;28;2728739;-71
2022/10/01 01:48:23;;;;;;;;;1.00;0.00;;;;;13.91;72.20;100728.78;4599855;28;2727735;-70
2022/10/01 01:51:24;;;;;;;;;0.00;0.00;;;;;13.87;71.95;100733.06;4600193;28;2725332;-71
2022/10/01 01:53:49;;;;;;;;;0.00;0.00;;;;;13.83;72.27;100730.38;4582313;28;2723223;-71
2022/10/01 01:56:16;;;;;;;;;1.00;0.00;;;;;13.76;72.18;100713.59;4598165;28;2725246;-71
2022/10/01 01:58:44;;;;;;;;;1.00;0.00;;;;;13.76;72.57;100725.84;4620101;28;2728399;-70
2022/10/01 02:01:32;;;;;;;;;0.00;0.00;;;;;13.77;72.21;100730.22;4621036;28;2725612;-71
2022/10/01 02:04:00;;;;;;;;;0.00;0.00;;;;;13.75;72.23;100732.84;4600296;28;2722188;-71
2022/10/01 02:07:02;;;;;;;;;0.00;0.00;;;;;13.74;72.26;100723.19;4599357;28;2725298;-71
2022/10/01 02:09:32;;;;;;;;;0.00;0.00;;;;;13.73;72.20;100727.53;4561720;28;2729468;-71
2022/10/01 02:12:07;;;;;;;;;1.00;0.00;;;;;13.70;72.88;100739.72;4599797;28;2725309;-71
2022/10/01 02:14:51;;;;;;;;;0.00;0.00;;;;;13.63;72.81;100736.09;4598261;28;2721144;-71
2022/10/01 02:17:49;;;;;;;;;0.00;0.00;;;;;13.54;72.57;100730.66;4599712;28;2723206;-71
2022/10/01 02:20:38;;;;;;;;;1.00;0.00;;;;;13.65;72.13;100760.63;4599330;28;2722530;-71
2022/10/01 02:23:36;;;;;;;;;1.00;0.00;;;;;13.62;72.07;100747.44;4597700;28;2728801;-71
2022/10/01 02:26:09;;;;;;;;;0.00;0.00;;;;;13.64;72.07;100761.47;4579282;28;2722165;-71
2022/10/01 02:28:37;;;;;;;;;0.00;0.00;;;;;13.56;72.18;100742.06;4599374;28;2725313;-71
2022/10/01 02:31:03;;;;;;;;;1.00;0.50;;;;;13.65;71.53;100744.00;4597708;28;2725301;-71
2022/10/01 02:33:33;;;;;;;;;0.50;0.00;;;;;13.56;71.79;100707.94;4597823;28;2726321;-71
2022/10/01 02:36:03;;;;;;;;;0.00;0.00;;;;;13.61;71.64;100713.28;4599649;28;2727766;-71
2022/10/01 02:38:32;;;;;;;;;0.00;0.00;;;;;13.65;71.75;100737.00;4597797;28;2720099;-71
2022/10/01 02:41:03;;;;;;;;;1.00;0.00;;;;;13.57;71.54;100729.81;4599213;28;2725293;-71
2022/10/01 02:43:34;;;;;;;;;0.00;0.00;;;;;13.59;71.95;100746.47;4599230;28;2727389;-71
2022/10/01 02:46:20;;;;;;;;;0.00;0.00;;;;;13.56;71.36;100731.56;4599453;28;2721108;-71
2022/10/01 02:48:46;;;;;;;;;0.00;0.00;;;;;13.62;71.07;100739.56;4598860;28;2725321;-71
2022/10/01 02:51:29;;;;;;;;;0.00;0.00;;;;;13.68;70.96;100747.56;4598038;28;2721147;-71
2022/10/01 02:54:19;;;;;;;;;1.50;1.00;;;;;13.63;71.17;100720.34;4599077;28;2721171;-71
2022/10/01 02:59:30;;;;;;;;;1.00;1.00;;;;;13.67;71.02;100729.19;4598528;28;2725274;-71
2022/10/01 03:01:56;;;;;;;;;0.00;0.00;;;;;13.67;70.19;100724.81;4609595;28;2727377;-71
2022/10/01 03:04:22;;;;;;;;;0.50;0.00;;;;;13.65;70.49;100718.63;4624778;28;2722177;-71
2022/10/01 03:06:47;;;;;;;;;0.00;0.00;;;;;13.74;70.19;100731.06;4625423;28;2733583;-71
2022/10/01 03:09:13;;;;;;;;;1.00;0.00;;;;;13.66;70.08;100707.25;4627587;28;2725326;-71
2022/10/01 03:11:39;;;;;;;;;1.00;0.00;;;;;13.59;69.95;100697.53;4624420;28;2724209;-71
2022/10/01 03:14:05;;;;;;;;;0.00;0.00;;;;;13.73;69.66;100730.19;4626206;28;2727440;-71
2022/10/01 03:16:31;;;;;;;;;0.00;0.00;;;;;13.71;69.39;100717.88;4620468;28;2720035;-71
2022/10/01 03:18:58;;;;;;;;;0.00;0.00;;;;;13.76;69.42;100723.22;4619750;28;2722164;-71
2022/10/01 03:21:23;;;;;;;;;1.00;0.00;;;;;13.80;69.19;100740.78;4620409;28;2725305;-71
2022/10/01 03:23:49;;;;;;;;;0.00;0.00;;;;;13.83;69.09;100757.50;4608035;28;2725615;-71
2022/10/01 03:26:15;;;;;;;;;1.00;0.00;;;;;13.78;69.31;100747.75;4628180;28;2725314;-71
2022/10/01 03:28:41;;;;;;;;;0.00;0.00;;;;;13.80;69.08;100753.94;4627079;28;2731485;-71
2022/10/01 03:31:09;;;;;;;;;0.00;0.00;;;;;13.89;69.14;100769.88;4626734;28;2727377;-71
2022/10/01 03:33:34;;;;;;;;;0.00;0.00;;;;;13.84;69.16;100764.50;4620012;28;2724272;-71
2022/10/01 03:36:04;;;;;;;;;1.00;0.00;;;;;13.76;69.68;100745.09;4597941;28;2725274;-71
2022/10/01 03:38:30;;;;;;;;;0.00;0.00;;;;;13.68;69.07;100738.81;4618042;28;2725291;-71
2022/10/01 03:40:56;;;;;;;;;0.00;0.00;;;;;13.78;69.32;100747.75;4617623;28;2726340;-71
2022/10/01 03:43:22;;;;;;;;;0.00;0.00;;;;;13.77;69.35;100766.97;4619915;28;2733651;-71
2022/10/01 03:45:48;;;;;;;;;0.00;0.00;;;;;13.76;69.35;100765.22;4602384;28;2725648;-71
2022/10/01 03:48:14;;;;;;;;;0.00;0.00;;;;;13.86;69.17;100790.81;4625873;28;2725291;-71
2022/10/01 03:50:40;;;;;;;;;0.00;0.00;;;;;13.79;69.41;100775.81;4628362;28;2727330;-71
2022/10/01 03:53:06;;;;;;;;;0.00;0.00;;;;;13.78;69.33;100779.28;4627516;28;2722149;-71
2022/10/01 03:55:31;;;;;;;;;0.00;0.00;;;;;13.82;69.24;100781.97;4622667;28;2729412;-71
2022/10/01 03:57:57;;;;;;;;;0.00;0.00;;;;;13.64;68.80;100750.97;4622435;28;2733654;-71
2022/10/01 04:00:24;;;;;;;;;0.00;0.00;;;;;13.78;68.99;100774.00;4623964;28;2733941;-71
2022/10/01 04:02:51;;;;;;;;;0.00;0.00;;;;;13.75;68.56;100776.56;4619270;28;2733572;-71
2022/10/01 04:05:17;;;;;;;;;1.00;0.00;;;;;13.61;68.82;100756.19;4620257;28;2733642;-71
2022/10/01 04:07:42;;;;;;;;;0.00;0.00;;;;;13.86;69.00;100796.94;4623193;28;2723194;-71
2022/10/01 04:10:08;;;;;;;;;0.00;0.00;;;;;13.77;68.70;100783.63;4611056;28;2727330;-71
2022/10/01 04:12:34;;;;;;;;;0.00;0.00;;;;;13.85;68.73;100792.56;4623479;28;2723285;-71
2022/10/01 04:15:00;;;;;;;;;0.00;0.00;;;;;13.85;68.78;100791.69;4631551;28;2731516;-71
2022/10/01 04:17:26;;;;;;;;;0.00;0.00;;;;;13.59;68.97;100750.00;4626493;28;2722177;-70
2022/10/01 04:19:52;;;;;;;;;0.00;0.00;;;;;13.83;69.03;100794.25;4626288;28;2730442;-71
2022/10/01 04:22:17;;;;;;;;;0.00;0.00;;;;;13.90;68.60;100798.78;4629087;28;2729441;-71
2022/10/01 04:24:43;;;;;;;;;0.00;0.00;;;;;13.89;68.65;100804.91;4631140;28;2724230;-71
2022/10/01 04:27:09;;;;;;;;;0.00;0.00;;;;;13.88;68.63;100797.84;4630078;28;2725282;-71
2022/10/01 04:29:35;;;;;;;;;0.00;0.00;;;;;13.92;68.46;100801.44;4627567;28;2728399;-71
2022/10/01 04:32:02;;;;;;;;;0.00;0.00;;;;;13.95;68.61;100795.34;4626207;28;2725293;-71
2022/10/01 04:37:12;;;;;;;;;0.00;0.00;;;;;14.05;68.49;100797.34;4601166;28;2725321;-70
2022/10/01 04:39:38;;;;;;;;;0.00;0.00;;;;;14.07;68.53;100807.00;4607189;28;2729467;-71
2022/10/01 04:42:04;;;;;;;;;0.00;0.00;;;;;13.99;68.63;100779.69;4630117;28;2728443;-71
2022/10/01 04:44:30;;;;;;;;;0.00;0.00;;;;;14.06;68.19;100789.47;4630224;28;2725278;-71
2022/10/01 04:46:56;;;;;;;;;0.00;0.00;;;;;13.97;68.49;100775.28;4629481;28;2722141;-71
2022/10/01 04:49:22;;;;;;;;;0.00;0.00;;;;;14.11;68.72;100794.81;4630105;28;2726317;-71
2022/10/01 04:51:48;;;;;;;;;0.00;0.00;;;;;14.18;68.92;100816.84;4622246;28;2725294;-71
2022/10/01 04:54:13;;;;;;;;;0.50;0.50;;;;;14.07;69.13;100801.75;4623900;28;2727346;-71
2022/10/01 04:56:39;;;;;;;;;0.00;0.00;;;;;14.06;69.23;100807.84;4622195;28;2726354;-71
2022/10/01 04:59:05;;;;;;;;;1.00;0.00;;;;;14.14;69.26;100823.75;4627889;28;2727367;-71
2022/10/01 05:01:31;;;;;;;;;0.00;0.00;;;;;14.08;69.56;100810.50;4628225;28;2727393;-71
2022/10/01 05:03:57;;;;;;;;;0.00;0.00;;;;;14.10;69.60;100814.94;4627297;28;2724248;-71
2022/10/01 05:06:23;;;;;;;;;0.00;0.00;;;;;14.04;69.59;100812.19;4619131;28;2727390;-71
2022/10/01 05:08:51;;;;;;;;;0.50;0.00;;;;;14.14;69.55;100829.00;4618751;28;2728439;-71
2022/10/01 05:11:17;;;;;;;;;0.00;0.00;;;;;14.09;69.88;100828.94;4596216;28;2731615;-71
2022/10/01 05:13:43;;;;;;;;;1.00;0.00;;;;;14.10;69.72;100840.31;4597755;28;2729810;-71
2022/10/01 05:16:10;;;;;;;;;1.00;0.00;;;;;14.16;69.42;100840.44;4598741;28;2727376;-70
2022/10/01 05:18:39;;;;;;;;;0.00;0.00;;;;;14.12;69.40;100836.91;4598668;28;2727413;-71
2022/10/01 05:21:06;;;;;;;;;1.00;1.00;;;;;14.19;69.21;100834.38;4598566;28;2723243;-71
2022/10/01 05:23:32;;;;;;;;;0.00;0.00;;;;;14.23;69.12;100846.72;4598282;28;2729496;-71
2022/10/01 05:25:59;;;;;;;;;0.50;0.00;;;;;14.16;69.13;100832.56;4601372;28;2726328;-71
2022/10/01 05:28:26;;;;;;;;;0.00;0.00;;;;;14.15;69.52;100845.69;4597850;28;2724308;-71
2022/10/01 05:30:52;;;;;;;;;0.00;0.00;;;;;14.16;69.90;100850.06;4598203;28;2726658;-72
2022/10/01 05:33:18;;;;;;;;;1.00;1.00;;;;;13.93;69.70;100821.59;4598187;28;2725667;-72
2022/10/01 05:35:44;;;;;;;;;0.00;0.00;;;;;14.06;69.97;100846.38;4604916;28;2726324;-72
2022/10/01 05:38:10;;;;;;;;;7.00;6.50;;;;;13.83;69.78;100817.91;4625512;28;2746099;-72
2022/10/01 05:40:36;;;;;;;;;2.00;2.00;;;;;13.94;69.97;100849.63;4627586;28;2742035;-71
2022/10/01 05:43:03;;;;;;;;;1.00;1.00;;;;;13.79;69.74;100833.56;4603373;28;2725285;-71
2022/10/01 05:45:30;;;;;;;;;0.50;0.50;;;;;13.96;69.82;100876.81;4620017;28;2727338;-71
2022/10/01 05:48:01;;;;;;;;;0.00;0.00;;;;;13.96;69.31;100874.19;4598487;28;2725302;-71
2022/10/01 05:50:31;;;;;;;;;1.00;0.00;;;;;13.96;69.36;100876.81;4619989;28;2725321;-71
2022/10/01 05:52:58;;;;;;;;;0.00;0.00;;;;;13.83;69.10;100866.91;4598240;28;2724286;-71
2022/10/01 05:55:24;;;;;;;;;0.00;0.00;;;;;13.92;69.15;100885.47;4597885;28;2727392;-71
2022/10/01 05:57:58;;;;;;;;;0.00;0.00;;;;;13.86;69.21;100885.34;4602369;28;2721079;-71
2022/10/01 06:00:27;;;;;;;;;0.00;0.00;;;;;13.90;68.97;100898.56;4613095;28;2725329;-71
2022/10/01 06:02:52;;;;;;;;;1.00;0.50;;;;;13.79;69.14;100880.84;4597516;28;2733626;-71
2022/10/01 06:05:19;;;;;;;;;0.00;0.00;;;;;13.85;69.32;100896.72;4604797;28;2725290;-71
2022/10/01 06:07:46;;;;;;;;;2.00;2.00;;;;;13.91;69.32;100913.50;4617193;28;2741996;-71
2022/10/01 06:10:12;;;;;;;;;1.00;0.00;;;;;13.89;69.12;100909.06;4619753;28;2727354;-71
2022/10/01 06:12:38;;;;;;;;;0.00;0.00;;;;;13.83;69.03;100901.94;4594700;28;2729473;-71
2022/10/01 06:15:04;;;;;;;;;3.00;2.00;;;;;13.76;69.25;100886.00;4599267;28;2750340;-71
2022/10/01 06:17:30;;;;;;;;;1.00;1.00;;;;;13.92;69.38;100909.13;4618069;28;2725556;-71
2022/10/01 06:19:56;;;;;;;;;1.00;1.00;;;;;13.90;69.08;100909.06;4606408;28;2725302;-71
2022/10/01 06:22:21;;;;;;;;;0.00;0.00;;;;;14.03;69.26;100931.25;4622399;28;2728430;-71
2022/10/01 06:24:47;;;;;;;;;0.50;0.50;;;;;13.97;68.90;100910.13;4626802;28;2726372;-71
2022/10/01 06:27:13;;;;;;;;;1.00;1.00;;;;;13.92;69.22;100898.59;4626757;28;2720158;-71
2022/10/01 06:29:39;;;;;;;;;3.00;3.00;;;;;14.26;68.81;100942.25;4629353;28;2735691;-71
2022/10/01 06:32:06;;;;;;;;;5.00;4.00;;;;;14.27;68.35;100920.38;4627865;28;2748214;-71
2022/10/01 06:34:33;;;;;;;;;2.00;2.00;;;;;14.40;68.18;100912.75;4620217;28;2741975;-71
2022/10/01 06:36:58;;;;;;;;;3.00;2.00;;;;;14.71;67.74;100941.44;4598249;28;2732577;-70
2022/10/01 06:39:24;;;;;;;;;3.00;3.00;;;;;14.71;67.09;100917.78;4608535;28;2737741;-71
2022/10/01 06:41:52;;;;;;;;;5.17;5.17;;;;;14.91;67.19;100941.81;4648489;28;2724228;-71
2022/10/01 06:44:19;;;;;;;;;3.00;3.00;;;;;14.93;66.54;100922.56;4628427;28;2737818;-71
2022/10/01 06:46:44;;;;;;;;;4.00;3.00;;;;;15.11;66.90;100938.69;4617606;28;2742008;-71
2022/10/01 06:49:10;;;;;;;;;1.00;1.00;;;;;15.22;66.52;100945.03;4604068;28;2722197;-71
2022/10/01 06:54:20;;;;;;;;;1.00;0.50;;;;;15.42;66.68;100950.63;4617457;28;2729468;-71
2022/10/01 06:56:46;;;;;;;;;1.00;1.00;;;;;15.28;66.70;100912.66;4606765;28;2725648;-71
2022/10/01 06:59:14;;;;;;;;;4.40;4.40;;;;;15.60;66.66;100952.66;4646769;28;2738819;-71
2022/10/01 07:01:41;;;;;;;;;4.83;4.83;;;;;15.68;66.40;100942.25;4646923;28;2738831;-72
2022/10/01 07:04:09;;;;;;;;;6.00;4.60;;;;;15.79;66.31;100953.84;4646518;28;2745076;-71
2022/10/01 07:06:35;;;;;;;;;2.50;2.50;;;;;15.97;66.10;100965.53;4603394;28;2731568;-71
2022/10/01 07:09:01;;;;;;;;;1.00;1.00;;;;;15.98;65.92;100944.50;4627438;28;2721096;-72
2022/10/01 07:11:27;;;;;;;;;2.00;2.00;;;;;16.03;65.95;100942.78;4626747;28;2731555;-72
2022/10/01 07:13:53;;;;;;;;;3.00;3.00;;;;;16.29;65.37;100968.63;4628752;28;2742953;-72
2022/10/01 07:16:19;;;;;;;;;2.00;2.00;;;;;16.34;64.85;100955.53;4623587;28;2741968;-71
2022/10/01 07:18:45;;;;;;;;;4.50;4.50;;;;;16.47;64.62;100958.31;4617411;28;2738843;-72
2022/10/01 07:21:11;;;;;;;;;3.00;3.00;;;;;16.76;64.26;100993.84;4604304;28;2742945;-71
2022/10/01 07:23:38;;;;;;;;;5.33;5.33;;;;;16.82;64.09;100986.91;4643909;28;2733572;-69
2022/10/01 07:26:07;;;;;;;;;3.00;2.00;;;;;16.88;64.10;100978.16;4622619;28;2725333;-72
2022/10/01 07:28:33;;;;;;;;;5.00;5.00;;;;;17.09;63.84;100998.63;4613563;28;2728446;-72
2022/10/01 07:31:06;;;;;;;;;5.20;4.00;;;;;17.17;63.58;100996.97;4609968;28;2739889;-72
2022/10/01 07:33:31;;;;;;;;;2.00;2.00;;;;;17.30;62.79;101004.09;4616782;28;2741983;-71
2022/10/01 07:36:01;;;;;;;;;1.20;1.20;;;;;17.27;62.78;100990.91;4624627;28;2741983;-71
2022/10/01 07:38:29;;;;;;;;;1.00;1.00;;;;;17.41;62.69;101006.00;4639457;28;2741896;-71
2022/10/01 07:40:57;;;;;;;;;1.00;1.00;;;;;17.32;62.43;100976.84;4618045;28;2741996;-72
2022/10/01 07:43:22;;;;;;;;;2.00;1.00;;;;;17.56;62.21;101000.81;4622572;28;2724622;-71
2022/10/01 07:45:48;;;;;;;;;3.00;2.00;;;;;17.62;61.93;101002.63;4611488;28;2741905;-72
2022/10/01 07:48:14;;;;;;;;;2.00;2.00;;;;;17.60;62.17;100989.41;4626353;28;2742015;-72
2022/10/01 07:50:46;;;;;;;;;1.00;1.00;;;;;17.91;62.63;101024.06;4623947;28;2741960;-71
2022/10/01 07:53:13;;;;;;;;;1.60;1.60;;;;;17.97;62.52;101018.81;4638081;28;2728411;-72
2022/10/01 07:55:39;;;;;;;;;3.00;1.00;;;;;18.09;62.17;101028.59;4628609;28;2735727;-72
2022/10/01 07:58:05;;;;;;;;;1.00;1.00;;;;;18.13;61.79;101019.78;4629428;28;2735707;-72
2022/10/01 08:00:32;;;;;;;;;2.50;2.00;;;;;18.16;62.19;101035.66;4622128;28;2741991;-72
2022/10/01 08:03:00;;;;;;;;;0.60;0.60;;;;;18.15;62.07;101043.63;4639362;28;2715912;-73
2022/10/01 08:05:29;;;;;;;;;2.00;1.33;;;;;18.16;62.43;101048.00;4617577;28;2750343;-73
2022/10/01 08:08:00;;;;;;;;;0.50;0.50;;;;;18.11;62.43;101040.06;4620516;28;2737816;-73
2022/10/01 08:10:28;;;;;;;;;0.60;0.60;;;;;18.21;62.14;101046.28;4599558;28;2722223;-73
2022/10/01 08:13:06;;;;;;;;;0.33;0.33;;;;;18.27;62.36;101055.13;4602626;28;2724587;-73
2022/10/01 08:15:31;;;;;;;;;0.00;0.00;;;;;18.40;62.26;101066.69;4603495;28;2724280;-73
2022/10/01 08:18:01;;;;;;;;;0.00;0.00;;;;;18.47;62.16;101079.06;4594131;28;2726653;-73
2022/10/01 08:20:29;;;;;;;;;1.20;1.20;;;;;18.53;61.92;101072.94;4620786;28;2730442;-72
2022/10/01 08:23:09;;;;;;;;;23.00;20.50;;;;;18.75;61.44;101089.81;4612292;28;2836752;-72
2022/10/01 08:25:35;;;;;;;;;9.00;9.00;;;;;18.90;59.88;101085.50;4602396;28;2742007;-72
2022/10/01 08:28:04;;;;;;;;;5.80;5.40;;;;;18.94;58.33;101092.56;4616695;28;2751304;-72
2022/10/01 08:30:32;;;;;;;;;5.80;5.60;;;;;18.97;59.76;101092.59;4613665;28;2741908;-74
2022/10/01 08:33:00;;;;;;;;;3.00;2.60;;;;;18.99;59.47;101082.91;4635158;28;2737769;-73
2022/10/01 08:35:28;;;;;;;;;0.33;0.33;;;;;19.17;58.51;101093.53;4619919;28;2725269;-80
2022/10/01 08:38:03;;;;;;;;;0.00;0.00;;;;;19.17;57.75;101071.47;4615720;28;2729460;-73
2022/10/01 08:40:41;;;;;;;;;0.60;0.00;;;;;19.28;57.68;101085.66;4637941;28;2725271;-72
2022/10/01 08:43:28;;;;;;;;;5.00;4.20;;;;;19.51;57.57;101104.22;4620139;28;2742314;-77
2022/10/01 08:45:57;;;;;;;;;13.50;12.00;;;;;19.56;57.57;101073.34;4576738;28;2481533;-73
2022/10/01 08:48:52;;;;;;;;;2.00;2.00;;;;;20.10;57.43;101102.56;4594703;28;2726331;-72
2022/10/01 08:51:34;;;;;;;;;2.60;1.60;;;;;20.57;55.25;101096.31;4620471;28;2735647;-78
2022/10/01 08:54:23;;;;;;;;;8.20;7.00;;;;;21.51;53.32;101087.09;4637585;28;2741944;-77
2022/10/01 08:56:54;;;;;;;;;1.80;1.80;;;;;22.17;52.55;101076.81;4616574;28;2741958;-72
2022/10/01 08:59:47;;;;;;;;;2.33;2.33;;;;;22.92;50.68;101092.88;4596632;28;2735678;-72
2022/10/01 09:02:18;;;;;;;;;0.60;0.60;;;;;22.73;49.17;101020.34;4634778;28;2731492;-77
2022/10/01 09:04:45;;;;;;;;;1.00;1.00;;;;;23.02;48.13;101087.47;4620391;28;2721100;-77
2022/10/01 09:07:56;;;;;;;;;2.40;1.80;;;;;23.03;48.96;101097.22;4635713;28;2746127;-72
2022/10/01 09:10:34;;;;;;;;;1.00;1.00;;;;;22.95;49.88;101090.19;4614794;28;2719043;-71
2022/10/01 09:13:29;;;;;;;;;0.80;0.80;;;;;22.75;50.18;101096.63;4640232;28;2718985;-71
2022/10/01 09:16:10;;;;;;;;;0.00;0.00;;;;;22.80;49.72;101107.22;4621152;28;2724241;-74
2022/10/01 09:18:49;;;;;;;;;0.00;0.00;;;;;22.70;50.80;101109.16;4639972;28;2727377;-71
2022/10/01 09:21:26;;;;;;;;;0.00;0.00;;;;;22.71;50.74;101110.91;4621484;28;2725360;-72
2022/10/01 09:24:03;;;;;;;;;0.00;0.00;;;;;22.70;50.15;101105.56;4638795;28;2725623;-72
2022/10/01 09:26:31;;;;;;;;;0.00;0.00;;;;;22.64;50.58;101103.84;4636208;28;2726327;-72
2022/10/01 09:29:01;;;;;;;;;0.80;0.00;;;;;22.67;49.46;101108.28;4635766;28;2723556;-72
2022/10/01 09:31:40;;;;;;;;;0.00;0.00;;;;;22.68;49.75;101096.72;4634449;28;2721521;-72
2022/10/01 09:34:15;;;;;;;;;1.00;1.00;;;;;22.59;50.04;101092.41;4620213;28;2725309;-72
2022/10/01 09:37:03;;;;;;;;;0.00;0.00;;;;;22.63;49.80;101094.13;4620708;28;2729429;-71
2022/10/01 09:39:40;;;;;;;;;0.00;0.00;;;;;22.70;50.40;101106.50;4637505;28;2727385;-72
2022/10/01 09:42:08;;;;;;;;;1.40;1.40;;;;;22.59;49.37;101081.75;4638141;28;2733599;-72
2022/10/01 09:44:36;;;;;;;;;0.20;0.00;;;;;22.76;49.31;101106.41;4642245;28;2723279;-72
2022/10/01 09:47:16;;;;;;;;;0.00;0.00;;;;;22.82;48.97;101126.78;4636099;28;2723175;-72
2022/10/01 09:49:45;;;;;;;;;0.00;0.00;;;;;22.76;49.68;101111.75;4637000;28;2727337;-71
2022/10/01 09:52:18;;;;;;;;;2.60;1.80;;;;;22.77;49.92;101120.59;4636639;28;2735663;-71
2022/10/01 09:54:57;;;;;;;;;1.00;1.00;;;;;22.76;50.42;101126.81;4639784;28;2724554;-71
2022/10/01 09:57:38;;;;;;;;;2.00;1.20;;;;;22.83;50.68;101134.72;4638280;28;2739826;-72
2022/10/01 10:00:10;;;;;;;;;2.00;1.00;;;;;22.93;50.32;101129.31;4636389;28;2726312;-74
2022/10/01 10:02:40;;;;;;;;;0.00;0.00;;;;;23.06;50.33;101133.63;4635915;28;2729480;-71
2022/10/01 10:05:14;;;;;;;;;1.00;1.00;;;;;23.21;49.44;101135.19;4631708;28;2724288;-71
2022/10/01 10:07:52;;;;;;;;;0.80;0.80;;;;;23.31;50.19;101134.16;4637218;28;2724241;-75
2022/10/01 10:10:24;;;;;;;;;0.40;0.40;;;;;23.46;49.76;101119.75;4637381;28;2725620;-72
2022/10/01 10:12:59;;;;;;;;;7.60;7.40;;;;;23.71;49.76;101135.41;4635469;28;2737785;-71
2022/10/01 10:15:31;;;;;;;;;3.60;2.80;;;;;23.94;49.02;101116.41;4633743;28;2739904;-71
2022/10/01 10:18:11;;;;;;;;;9.33;9.00;;;;;24.30;48.25;101128.25;4613547;28;3473117;-71
2022/10/01 10:20:42;;;;;;;;;4.20;4.20;;;;;24.60;47.95;101120.59;4633826;28;2748209;-73
2022/10/01 10:23:19;;;;;;;;;1.20;1.00;;;;;24.97;46.32;101136.81;4634215;28;2727373;-72
2022/10/01 10:26:01;;;;;;;;;1.00;1.00;;;;;24.88;47.06;101080.84;4638695;28;2726361;-73
2022/10/01 10:28:43;;;;;;;;;3.20;3.20;;;;;25.42;46.30;101135.00;4637487;28;2735758;-69
2022/10/01 10:31:19;;;;;;;;;4.33;4.33;;;;;25.47;45.76;101128.63;4619695;28;2732590;-71
2022/10/01 10:33:57;;;;;;;;;1.20;1.00;;;;;25.68;45.29;101142.44;4636877;28;2729468;-69
2022/10/01 10:36:29;;;;;;;;;2.40;1.00;;;;;25.82;44.78;101140.31;4638338;28;2729763;-69
2022/10/01 10:38:57;;;;;;;;;1.40;1.40;;;;;25.85;44.62;101140.25;4637445;28;2735722;-67
2022/10/01 10:41:28;;;;;;;;;2.80;1.60;;;;;25.97;44.87;101145.31;4634736;28;2741905;-69
2022/10/01 10:44:05;;;;;;;;;2.00;1.60;;;;;25.99;44.83;101143.50;4609394;28;2742377;-68
2022/10/01 10:46:38;;;;;;;;;1.20;1.00;;;;;26.05;44.87;101144.28;4613074;28;2733615;-68
2022/10/01 10:49:30;;;;;;;;;0.00;0.00;;;;;26.25;44.35;101144.63;4636960;28;2725317;-69
2022/10/01 10:51:59;;;;;;;;;2.20;1.40;;;;;26.37;44.19;101141.63;4618232;28;2737790;-69
2022/10/01 10:54:45;;;;;;;;;8.20;7.80;;;;;26.27;44.84;101150.84;4616191;28;2765926;-68
2022/10/01 10:57:29;;;;;;;;;0.80;0.60;;;;;26.26;44.16;101153.53;4596627;28;2722142;-69
2022/10/01 10:59:58;;;;;;;;;1.60;1.00;;;;;26.28;44.51;101154.38;4617805;28;2725274;-69
2022/10/01 11:02:31;;;;;;;;;0.40;0.40;;;;;26.29;44.58;101149.00;4617528;28;2723262;-69
2022/10/01 11:05:03;;;;;;;;;1.80;1.80;;;;;26.33;44.06;101155.16;4617605;28;2734649;-69
2022/10/01 11:07:32;;;;;;;;;1.60;1.00;;;;;26.22;44.07;101149.19;4618877;28;2724241;-69
2022/10/01 11:10:16;;;;;;;;;6.00;5.40;;;;;26.28;44.17;101152.59;4617297;28;2736735;-69
2022/10/01 11:13:01;;;;;;;;;3.00;3.00;;;;;26.37;43.90;101148.78;4595854;28;2717964;-69
2022/10/01 11:15:59;;;;;;;;;0.40;0.00;;;;;26.38;43.10;101110.34;4617742;28;2724312;-69
2022/10/01 11:19:04;;;;;;;;;1.00;1.00;;;;;26.66;43.22;101142.69;4619828;28;2725237;-68
2022/10/01 11:21:53;;;;;;;;;0.00;0.00;;;;;26.93;41.63;101145.53;4619384;28;2724201;-69
2022/10/01 11:24:38;;;;;;;;;1.40;1.40;;;;;27.07;42.63;101151.34;4619444;28;2737739;-69
2022/10/01 11:27:05;;;;;;;;;1.80;1.80;;;;;27.21;42.72;101155.44;4596063;28;2741893;-69
2022/10/01 11:30:11;;;;;;;;;1.00;0.33;;;;;27.49;42.17;101159.06;4609260;28;2722157;-69
2022/10/01 11:32:41;;;;;;;;;1.40;1.40;;;;;27.61;41.75;101151.59;4620239;28;2725259;-69
2022/10/01 11:35:57;;;;;;;;;1.00;1.00;;;;;27.60;41.47;101142.66;4616204;28;2729489;-69
2022/10/01 11:38:42;;;;;;;;;1.67;0.67;;;;;27.60;40.97;101139.09;4596731;28;2725346;-69